createdAt,value
2017-12-04T00:00:16.600Z,1.20
2017-12-04T00:02:45.577Z,1.10
2017-12-04T00:05:15.525Z,1.20
2017-12-04T00:07:45.184Z,1.20
2017-12-04T00:10:15.238Z,1.20
2017-12-04T00:12:44.207Z,1.10
2017-12-04T00:15:13.250Z,1.10
2017-12-04T00:17:42.365Z,1.20
2017-12-04T00:21:14.711Z,1.20
2017-12-04T00:23:44.394Z,1.20
2017-12-04T00:26:14.441Z,1.30
2017-12-04T00:28:43.464Z,1.30
2017-12-04T00:31:12.624Z,1.20
2017-12-04T00:33:41.711Z,1.20
2017-12-04T00:36:11.014Z,1.20
2017-12-04T00:38:39.934Z,1.20
2017-12-04T00:41:12.410Z,1.20
2017-12-04T00:43:41.293Z,1.20
2017-12-04T00:46:10.258Z,1.20
2017-12-04T00:48:39.931Z,1.20
2017-12-04T00:51:09.610Z,1.20
2017-12-04T00:53:38.534Z,1.20
2017-12-04T00:56:08.281Z,1.20
2017-12-04T00:58:37.266Z,1.10
2017-12-04T01:01:06.564Z,1.20
2017-12-04T01:03:35.516Z,1.20
2017-12-04T01:06:05.779Z,1.20
2017-12-04T01:08:34.717Z,1.20
2017-12-04T01:11:03.843Z,1.20
2017-12-04T01:13:32.808Z,1.20
2017-12-04T01:16:01.698Z,1.20
2017-12-04T01:18:30.597Z,1.30
2017-12-04T01:21:00.374Z,1.20
2017-12-04T01:23:29.382Z,1.20
2017-12-04T01:25:58.430Z,1.20
2017-12-04T01:28:27.714Z,1.20
2017-12-04T01:30:56.652Z,1.20
2017-12-04T01:33:25.624Z,1.20
2017-12-04T01:35:54.518Z,1.30
2017-12-04T01:38:23.640Z,1.30
2017-12-04T01:40:52.700Z,1.20
2017-12-04T01:43:22.514Z,1.20
2017-12-04T01:45:52.141Z,1.20
2017-12-04T01:48:21.189Z,1.30
2017-12-04T01:50:50.193Z,1.30
2017-12-04T01:53:19.882Z,1.30
2017-12-04T01:55:49.545Z,1.30
2017-12-04T01:58:18.508Z,1.30
2017-12-04T02:00:47.735Z,1.30
2017-12-04T02:03:16.856Z,1.30
2017-12-04T02:05:45.935Z,1.30
2017-12-04T02:08:14.915Z,1.20
2017-12-04T02:10:44.374Z,1.30
2017-12-04T02:13:14.039Z,1.20
2017-12-04T02:15:43.074Z,1.20
2017-12-04T02:18:12.868Z,1.20
2017-12-04T02:20:42.852Z,1.30
2017-12-04T02:23:11.969Z,1.20
2017-12-04T02:25:41.399Z,1.30
2017-12-04T02:28:11.725Z,1.30
2017-12-04T02:30:41.700Z,1.20
2017-12-04T02:33:10.774Z,1.20
2017-12-04T02:35:40.011Z,1.30
2017-12-04T02:38:09.843Z,1.30
2017-12-04T02:40:39.822Z,1.30
2017-12-04T02:43:08.922Z,1.20
2017-12-04T02:45:38.244Z,1.30
2017-12-04T02:48:08.044Z,1.30
2017-12-04T02:50:37.259Z,1.20
2017-12-04T02:53:07.408Z,1.40
2017-12-04T02:55:36.464Z,1.30
2017-12-04T02:58:05.583Z,1.30
2017-12-04T03:00:34.840Z,1.30
2017-12-04T03:03:06.107Z,1.30
2017-12-04T03:05:35.975Z,1.30
2017-12-04T03:08:04.943Z,1.30
2017-12-04T03:10:33.940Z,1.40
2017-12-04T03:13:02.829Z,1.50
2017-12-04T03:15:31.857Z,1.40
2017-12-04T03:18:01.094Z,1.40
2017-12-04T03:20:31.019Z,1.50
2017-12-04T03:23:00.736Z,1.50
2017-12-04T03:25:29.702Z,1.50
2017-12-04T03:27:59.497Z,1.30
2017-12-04T03:30:28.747Z,1.30
2017-12-04T03:32:57.773Z,1.50
2017-12-04T03:35:27.207Z,1.50
2017-12-04T03:37:56.191Z,1.50
2017-12-04T03:40:25.202Z,1.40
2017-12-04T03:42:55.254Z,1.40
2017-12-04T03:45:24.376Z,1.40
2017-12-04T03:47:53.338Z,1.50
2017-12-04T03:50:22.466Z,1.50
2017-12-04T03:52:51.418Z,1.40
2017-12-04T03:55:20.361Z,1.50
2017-12-04T03:57:50.047Z,1.50
2017-12-04T04:00:19.241Z,1.50
2017-12-04T04:02:49.170Z,1.50
2017-12-04T04:05:18.088Z,1.50
2017-12-04T04:07:47.002Z,1.50
2017-12-04T04:10:15.987Z,1.50
2017-12-04T04:12:45.618Z,1.50
2017-12-04T04:15:14.869Z,1.50
2017-12-04T04:17:44.247Z,1.50
2017-12-04T04:20:13.410Z,1.50
2017-12-04T04:22:42.300Z,1.70
2017-12-04T04:25:12.774Z,1.70
2017-12-04T04:27:41.733Z,1.80
2017-12-04T04:30:11.898Z,1.90
2017-12-04T04:32:40.842Z,1.90
2017-12-04T04:35:11.343Z,2.00
2017-12-04T04:37:41.102Z,2.10
2017-12-04T04:40:14.035Z,2.10
2017-12-04T04:42:43.721Z,2.20
2017-12-04T04:45:14.586Z,2.10
2017-12-04T04:47:43.621Z,2.10
2017-12-04T04:50:12.855Z,2.20
2017-12-04T04:52:41.995Z,2.20
2017-12-04T04:55:11.273Z,2.10
2017-12-04T04:57:40.209Z,2.20
2017-12-04T05:00:10.315Z,2.20
2017-12-04T05:02:39.211Z,2.20
2017-12-04T05:05:13.033Z,2.20
2017-12-04T05:07:42.018Z,2.20
2017-12-04T05:10:12.208Z,2.20
2017-12-04T05:12:41.101Z,2.20
2017-12-04T05:15:11.184Z,2.20
2017-12-04T05:17:41.261Z,2.20
2017-12-04T05:20:12.153Z,2.10
2017-12-04T05:22:41.932Z,2.20
2017-12-04T05:25:25.531Z,2.20
2017-12-04T05:27:55.974Z,2.20
2017-12-04T05:30:25.030Z,2.20
2017-12-04T05:32:55.256Z,2.20
2017-12-04T05:35:24.270Z,2.20
2017-12-04T05:37:53.461Z,2.30
2017-12-04T05:40:22.728Z,2.20
2017-12-04T05:42:52.431Z,2.20
2017-12-04T05:45:21.633Z,2.20
2017-12-04T05:47:51.544Z,2.20
2017-12-04T05:50:20.557Z,2.20
2017-12-04T05:52:49.583Z,2.20
2017-12-04T05:55:18.554Z,2.20
2017-12-04T05:57:47.469Z,2.30
2017-12-04T06:00:17.009Z,2.20
2017-12-04T06:02:45.892Z,2.30
2017-12-04T06:05:15.072Z,2.30
2017-12-04T06:07:44.035Z,2.30
2017-12-04T06:10:13.344Z,2.30
2017-12-04T06:12:42.322Z,2.30
2017-12-04T06:15:12.269Z,2.30
2017-12-04T06:17:41.299Z,2.40
2017-12-04T06:20:12.150Z,2.30
2017-12-04T06:22:41.946Z,2.30
2017-12-04T06:25:13.629Z,2.30
2017-12-04T06:27:42.618Z,2.30
2017-12-04T06:30:19.642Z,2.40
2017-12-04T06:32:49.709Z,2.30
2017-12-04T06:35:19.609Z,2.50
2017-12-04T06:37:50.398Z,2.40
2017-12-04T06:40:19.363Z,2.50
2017-12-04T06:42:49.217Z,2.50
2017-12-04T06:45:18.215Z,2.50
2017-12-04T06:47:49.832Z,2.60
2017-12-04T06:50:18.829Z,2.50
2017-12-04T06:52:48.646Z,2.50
2017-12-04T06:55:17.925Z,2.50
2017-12-04T06:57:48.741Z,2.40
2017-12-04T07:00:17.876Z,2.40
2017-12-04T07:02:46.834Z,2.50
2017-12-04T07:05:16.541Z,2.50
2017-12-04T07:07:46.270Z,2.60
2017-12-04T07:10:17.044Z,2.70
2017-12-04T07:12:45.930Z,2.60
2017-12-04T07:15:15.230Z,2.70
2017-12-04T07:17:44.867Z,2.80
2017-12-04T07:20:15.239Z,2.80
2017-12-04T07:22:44.311Z,2.70
2017-12-04T07:25:16.192Z,2.80
2017-12-04T07:27:46.036Z,2.80
2017-12-04T07:30:18.425Z,2.80
2017-12-04T07:32:47.860Z,2.80
2017-12-04T07:35:19.377Z,2.70
2017-12-04T07:37:49.052Z,2.70
2017-12-04T07:40:18.700Z,2.70
2017-12-04T07:42:49.031Z,2.70
2017-12-04T07:45:19.235Z,2.70
2017-12-04T07:47:49.193Z,2.70
2017-12-04T07:50:18.340Z,2.70
2017-12-04T07:52:47.285Z,2.80
2017-12-04T07:55:17.268Z,2.70
2017-12-04T07:57:46.390Z,2.70
2017-12-04T08:00:19.314Z,2.80
2017-12-04T08:02:48.616Z,2.80
2017-12-04T08:05:18.136Z,2.80
2017-12-04T08:07:48.887Z,2.90
2017-12-04T08:10:20.643Z,2.90
2017-12-04T08:12:51.487Z,2.90
2017-12-04T08:15:23.654Z,2.90
2017-12-04T08:17:53.762Z,2.90
2017-12-04T08:20:25.582Z,3.00
2017-12-04T08:22:55.362Z,3.00
2017-12-04T08:25:31.957Z,3.00
2017-12-04T08:28:07.192Z,3.00
2017-12-04T08:30:38.171Z,3.10
2017-12-04T08:33:08.337Z,3.20
2017-12-04T08:35:37.658Z,3.10
2017-12-04T08:38:09.185Z,3.20
2017-12-04T08:40:40.113Z,3.20
2017-12-04T08:43:10.267Z,3.20
2017-12-04T08:45:41.091Z,3.20
2017-12-04T08:48:11.762Z,3.30
2017-12-04T08:50:42.743Z,3.30
2017-12-04T08:53:11.864Z,3.30
2017-12-04T08:55:42.864Z,3.30
2017-12-04T08:58:12.187Z,3.20
2017-12-04T09:00:44.204Z,3.20
2017-12-04T09:03:13.541Z,3.20
2017-12-04T09:05:44.453Z,3.20
2017-12-04T09:08:13.799Z,3.20
2017-12-04T09:10:43.891Z,3.30
2017-12-04T09:14:33.107Z,3.40
2017-12-04T09:17:02.376Z,3.30
2017-12-04T09:19:32.482Z,3.40
2017-12-04T09:22:03.351Z,3.50
2017-12-04T09:24:33.618Z,3.60
2017-12-04T09:27:03.790Z,3.50
2017-12-04T09:29:34.083Z,3.60
2017-12-04T09:32:05.102Z,3.70
2017-12-04T09:34:35.784Z,3.70
2017-12-04T09:37:12.106Z,3.80
2017-12-04T09:39:42.809Z,3.80
2017-12-04T09:42:12.760Z,3.80
2017-12-04T09:44:42.077Z,3.90
2017-12-04T09:47:12.977Z,3.90
2017-12-04T09:49:43.231Z,3.90
2017-12-04T09:52:12.901Z,3.90
2017-12-04T09:54:42.859Z,4.00
2017-12-04T09:57:12.779Z,3.90
2017-12-04T09:59:41.877Z,3.90
2017-12-04T10:02:12.575Z,3.90
2017-12-04T10:04:42.611Z,4.00
2017-12-04T10:07:13.310Z,4.00
2017-12-04T10:09:42.747Z,4.00
2017-12-04T10:12:13.490Z,4.00
2017-12-04T10:14:42.842Z,4.00
2017-12-04T10:17:12.780Z,4.00
2017-12-04T10:19:46.437Z,4.00
2017-12-04T10:22:15.748Z,4.10
2017-12-04T10:24:45.580Z,4.10
2017-12-04T10:27:14.969Z,4.00
2017-12-04T10:29:44.273Z,4.00
2017-12-04T10:32:14.251Z,4.00
2017-12-04T10:34:43.574Z,3.90
2017-12-04T10:37:13.129Z,4.00
2017-12-04T10:39:42.403Z,4.00
2017-12-04T10:42:12.458Z,3.90
2017-12-04T10:44:42.402Z,3.80
2017-12-04T10:47:13.266Z,3.90
2017-12-04T10:49:42.700Z,3.90
2017-12-04T10:52:11.963Z,3.80
2017-12-04T10:54:41.205Z,3.60
2017-12-04T10:57:10.484Z,3.60
2017-12-04T10:59:46.292Z,3.50
2017-12-04T11:02:17.057Z,3.40
2017-12-04T11:04:46.738Z,3.40
2017-12-04T11:07:16.992Z,3.40
2017-12-04T11:09:46.350Z,3.50
2017-12-04T11:12:17.785Z,3.60
2017-12-04T11:14:46.940Z,3.50
2017-12-04T11:17:16.555Z,3.60
2017-12-04T11:19:45.909Z,3.70
2017-12-04T11:22:16.042Z,3.80
2017-12-04T11:24:45.333Z,3.70
2017-12-04T11:27:16.684Z,3.80
2017-12-04T11:29:47.056Z,3.80
2017-12-04T11:32:16.330Z,3.80
2017-12-04T11:34:46.455Z,3.80
2017-12-04T11:37:15.905Z,3.90
2017-12-04T11:39:46.795Z,4.00
2017-12-04T11:42:16.865Z,4.00
2017-12-04T11:44:48.885Z,4.10
2017-12-04T11:47:20.716Z,4.10
2017-12-04T11:49:52.468Z,4.10
2017-12-04T11:52:23.451Z,4.10
2017-12-04T11:54:52.467Z,4.10
2017-12-04T11:57:22.799Z,4.30
2017-12-04T11:59:52.569Z,4.40
2017-12-04T12:02:22.927Z,4.30
2017-12-04T12:04:51.925Z,4.50
2017-12-04T12:07:28.535Z,4.60
2017-12-04T12:09:59.450Z,4.70
2017-12-04T12:12:30.098Z,4.80
2017-12-04T12:15:00.193Z,4.90
2017-12-04T12:17:30.762Z,4.90
2017-12-04T12:20:01.131Z,5.10
2017-12-04T12:22:34.390Z,5.10
2017-12-04T12:25:24.524Z,5.10
2017-12-04T12:27:59.274Z,5.10
2017-12-04T12:30:50.210Z,5.00
2017-12-04T12:33:21.202Z,5.00
2017-12-04T12:35:51.629Z,4.90
2017-12-04T12:38:21.673Z,4.80
2017-12-04T12:40:52.758Z,4.80
2017-12-04T12:43:21.869Z,4.80
2017-12-04T12:45:53.200Z,4.80
2017-12-04T12:48:23.146Z,4.70
2017-12-04T12:50:59.197Z,4.70
2017-12-04T12:53:38.238Z,4.60
2017-12-04T12:56:09.447Z,4.70
2017-12-04T12:58:39.648Z,4.60
2017-12-04T13:01:10.795Z,4.60
2017-12-04T13:03:40.215Z,4.60
2017-12-04T13:06:10.877Z,4.60
2017-12-04T13:08:41.070Z,4.60
2017-12-04T13:11:14.486Z,4.50
2017-12-04T13:13:43.935Z,4.60
2017-12-04T13:16:13.273Z,4.60
2017-12-04T13:18:43.555Z,4.60
2017-12-04T13:21:14.793Z,4.50
2017-12-04T13:23:45.358Z,4.60
2017-12-04T13:26:22.460Z,4.60
2017-12-04T13:28:51.666Z,4.60
2017-12-04T13:31:21.202Z,4.60
2017-12-04T13:34:02.018Z,4.60
2017-12-04T13:36:40.264Z,4.60
2017-12-04T13:39:11.563Z,4.50
2017-12-04T13:41:46.554Z,4.50
2017-12-04T13:44:18.454Z,4.40
2017-12-04T13:46:49.080Z,4.30
2017-12-04T13:49:18.366Z,4.30
2017-12-04T13:51:48.671Z,4.30
2017-12-04T13:54:19.418Z,4.30
2017-12-04T13:56:50.538Z,4.30
2017-12-04T13:59:21.222Z,4.20
2017-12-04T14:01:50.451Z,4.20
2017-12-04T14:04:22.917Z,4.20
2017-12-04T14:06:53.740Z,4.10
2017-12-04T14:09:22.985Z,4.10
2017-12-04T14:11:53.157Z,4.20
2017-12-04T14:14:22.546Z,4.10
2017-12-04T14:16:56.507Z,4.20
2017-12-04T14:19:27.307Z,4.10
2017-12-04T14:22:00.302Z,4.10
2017-12-04T14:24:35.508Z,4.20
2017-12-04T14:27:12.156Z,4.10
2017-12-04T14:29:44.745Z,4.10
2017-12-04T14:32:14.533Z,4.00
2017-12-04T14:34:44.568Z,4.10
2017-12-04T14:37:13.909Z,4.00
2017-12-04T14:39:44.334Z,4.10
2017-12-04T14:42:15.401Z,4.10
2017-12-04T14:44:47.517Z,4.10
2017-12-04T14:47:16.804Z,4.10
2017-12-04T14:49:47.753Z,4.10
2017-12-04T14:52:18.559Z,4.00
2017-12-04T14:54:49.726Z,4.00
2017-12-04T14:57:19.295Z,4.00
2017-12-04T14:59:51.471Z,4.00
2017-12-04T15:02:22.523Z,4.00
2017-12-04T15:04:52.936Z,3.90
2017-12-04T15:07:23.122Z,3.90
2017-12-04T15:09:53.057Z,3.90
2017-12-04T15:12:29.861Z,3.90
2017-12-04T15:15:00.208Z,3.90
2017-12-04T15:17:36.015Z,3.80
2017-12-04T15:20:24.043Z,3.80
2017-12-04T15:22:58.149Z,3.80
2017-12-04T15:25:30.535Z,3.80
2017-12-04T15:28:08.798Z,3.80
2017-12-04T15:30:39.527Z,3.70
2017-12-04T15:33:16.652Z,3.70
2017-12-04T15:35:46.469Z,3.70
2017-12-04T15:38:16.487Z,3.70
2017-12-04T15:40:47.399Z,3.70
2017-12-04T15:43:17.447Z,3.80
2017-12-04T15:45:48.935Z,3.80
2017-12-04T15:48:18.959Z,3.80
2017-12-04T15:50:54.674Z,3.80
2017-12-04T15:53:24.528Z,3.80
2017-12-04T15:55:54.631Z,3.90
2017-12-04T15:58:25.267Z,3.90
2017-12-04T16:00:56.315Z,3.90
2017-12-04T16:03:26.242Z,4.00
2017-12-04T16:05:55.573Z,3.90
2017-12-04T16:08:25.109Z,4.00
2017-12-04T16:10:54.622Z,4.00
2017-12-04T16:13:27.624Z,4.10
2017-12-04T16:16:04.524Z,4.10
2017-12-04T16:18:46.535Z,4.10
2017-12-04T16:21:15.918Z,4.00
2017-12-04T16:23:47.534Z,4.10
2017-12-04T16:26:19.341Z,4.10
2017-12-04T16:28:50.020Z,4.10
2017-12-04T16:31:22.279Z,4.10
2017-12-04T16:33:53.040Z,4.10
2017-12-04T16:36:26.074Z,4.10
2017-12-04T16:38:55.522Z,4.00
2017-12-04T16:41:27.361Z,4.10
2017-12-04T16:43:56.609Z,4.10
2017-12-04T16:46:26.465Z,4.10
2017-12-04T16:48:58.051Z,4.10
2017-12-04T16:51:29.854Z,4.00
2017-12-04T16:54:00.009Z,4.10
2017-12-04T16:56:32.035Z,4.20
2017-12-04T16:59:01.315Z,4.10
2017-12-04T17:01:34.410Z,4.20
2017-12-04T17:04:03.711Z,4.20
2017-12-04T17:06:33.481Z,4.20
2017-12-04T17:09:04.974Z,4.20
2017-12-04T17:11:34.743Z,4.10
2017-12-04T17:14:06.150Z,4.10
2017-12-04T17:16:38.198Z,4.10
2017-12-04T17:19:09.854Z,4.00
2017-12-04T17:21:40.149Z,4.00
2017-12-04T17:24:11.138Z,4.00
2017-12-04T17:26:41.666Z,4.00
2017-12-04T17:29:12.092Z,4.00
2017-12-04T17:31:47.663Z,4.00
2017-12-04T17:34:17.088Z,3.90
2017-12-04T17:36:47.005Z,4.00
2017-12-04T17:39:17.036Z,4.00
2017-12-04T17:41:47.175Z,4.00
2017-12-04T17:44:17.119Z,3.90
2017-12-04T17:46:46.643Z,3.90
2017-12-04T17:49:18.135Z,3.90
2017-12-04T17:51:47.367Z,3.90
2017-12-04T17:54:16.623Z,3.90
2017-12-04T17:56:47.727Z,3.90
2017-12-04T17:59:17.214Z,3.80
2017-12-04T18:01:46.233Z,3.90
2017-12-04T18:04:17.817Z,3.90
2017-12-04T18:06:49.122Z,3.80
2017-12-04T18:09:18.362Z,3.90
2017-12-04T18:11:53.578Z,3.90
2017-12-04T18:14:23.667Z,3.80
2017-12-04T18:16:52.848Z,3.80
2017-12-04T18:19:23.044Z,3.80
2017-12-04T18:21:52.308Z,3.80
2017-12-04T18:24:21.607Z,3.80
2017-12-04T18:26:51.835Z,3.80
2017-12-04T18:29:21.439Z,3.80
2017-12-04T18:31:53.260Z,3.90
2017-12-04T18:34:22.437Z,3.80
2017-12-04T18:36:52.610Z,3.90
2017-12-04T18:39:22.832Z,3.90
2017-12-04T18:41:51.923Z,3.80
2017-12-04T18:44:22.519Z,3.80
2017-12-04T18:46:52.356Z,3.90
2017-12-04T18:49:21.823Z,3.90
2017-12-04T18:51:51.168Z,3.90
2017-12-04T18:54:20.546Z,3.90
2017-12-04T18:56:49.846Z,3.90
2017-12-04T18:59:19.774Z,3.90
2017-12-04T19:01:49.071Z,4.00
2017-12-04T19:04:18.523Z,4.00
2017-12-04T19:06:48.424Z,3.90
2017-12-04T19:09:18.941Z,3.90
2017-12-04T19:11:48.177Z,3.90
2017-12-04T19:14:18.563Z,3.90
2017-12-04T19:16:47.672Z,3.90
2017-12-04T19:19:18.636Z,3.90
2017-12-04T19:21:48.440Z,3.80
2017-12-04T19:24:19.110Z,3.90
2017-12-04T19:26:50.670Z,3.80
2017-12-04T19:29:19.842Z,3.90
2017-12-04T19:31:49.235Z,3.90
2017-12-04T19:34:18.475Z,3.90
2017-12-04T19:36:47.643Z,3.80
2017-12-04T19:39:18.734Z,3.80
2017-12-04T19:41:48.674Z,3.80
2017-12-04T19:44:18.591Z,3.70
2017-12-04T19:46:48.670Z,3.90
2017-12-04T19:49:18.332Z,3.80
2017-12-04T19:51:50.916Z,3.80
2017-12-04T19:54:20.360Z,3.80
2017-12-04T19:56:49.818Z,3.80
2017-12-04T19:59:19.287Z,3.80
2017-12-04T20:01:50.383Z,3.80
2017-12-04T20:04:19.918Z,3.80
2017-12-04T20:06:49.164Z,3.80
2017-12-04T20:09:18.614Z,3.80
2017-12-04T20:11:47.727Z,3.80
2017-12-04T20:14:17.131Z,3.80
2017-12-04T20:16:46.299Z,3.70
2017-12-04T20:19:15.687Z,3.80
2017-12-04T20:21:45.039Z,3.70
2017-12-04T20:24:15.116Z,3.70
2017-12-04T20:26:44.739Z,3.60
2017-12-04T20:29:15.587Z,3.70
2017-12-04T20:31:45.554Z,3.70
2017-12-04T20:34:16.053Z,3.70
2017-12-04T20:36:46.223Z,3.80
2017-12-04T20:39:16.063Z,3.70
2017-12-04T20:41:51.117Z,3.80
2017-12-04T20:44:21.943Z,3.80
2017-12-04T20:46:52.146Z,3.80
2017-12-04T20:49:21.578Z,3.80
2017-12-04T20:51:52.020Z,3.80
2017-12-04T20:54:22.162Z,3.80
2017-12-04T20:56:52.079Z,3.90
2017-12-04T20:59:29.311Z,3.80
2017-12-04T21:01:58.463Z,3.90
2017-12-04T21:04:27.813Z,3.90
2017-12-04T21:06:57.613Z,3.90
2017-12-04T21:11:49.381Z,3.90
2017-12-04T21:14:29.974Z,3.90
2017-12-04T21:17:30.016Z,3.90
2017-12-04T21:19:59.543Z,3.90
2017-12-04T21:22:29.299Z,3.90
2017-12-04T21:24:58.512Z,3.90
2017-12-04T21:27:27.910Z,3.90
2017-12-04T21:29:57.565Z,3.90
2017-12-04T21:32:27.851Z,3.90
2017-12-04T21:34:58.354Z,4.00
2017-12-04T21:37:38.855Z,3.90
2017-12-04T21:40:13.096Z,4.00
2017-12-04T21:42:42.221Z,4.00
2017-12-04T21:45:14.619Z,4.00
2017-12-04T21:47:44.384Z,4.00
2017-12-04T21:50:16.175Z,4.00
2017-12-04T21:52:45.218Z,4.10
2017-12-04T21:55:14.489Z,4.10
2017-12-04T21:57:43.563Z,4.10
2017-12-04T22:00:15.937Z,4.20
2017-12-04T22:02:44.951Z,4.10
2017-12-04T22:05:16.500Z,4.20
2017-12-04T22:07:45.598Z,4.20
2017-12-04T22:10:14.700Z,4.20
2017-12-04T22:12:43.700Z,4.20
2017-12-04T22:15:14.138Z,4.30
2017-12-04T22:17:44.024Z,4.30
2017-12-04T22:20:14.159Z,4.30
2017-12-04T22:22:43.264Z,4.30
2017-12-04T22:25:16.341Z,4.30
2017-12-04T22:27:45.380Z,4.30
2017-12-04T22:30:18.592Z,4.40
2017-12-04T22:32:48.420Z,4.50
2017-12-04T22:35:19.554Z,4.40
2017-12-04T22:37:48.555Z,4.50
2017-12-04T22:40:18.853Z,4.50
2017-12-04T22:42:48.733Z,4.60
2017-12-04T22:45:17.941Z,4.60
2017-12-04T22:47:47.740Z,4.60
2017-12-04T22:50:18.144Z,4.60
2017-12-04T22:52:47.161Z,4.60
2017-12-04T22:55:16.417Z,4.60
2017-12-04T22:57:45.399Z,4.70
2017-12-04T23:00:25.729Z,4.70
2017-12-04T23:02:54.723Z,4.70
2017-12-04T23:05:23.796Z,4.70
2017-12-04T23:07:54.397Z,4.80
2017-12-04T23:10:23.623Z,4.70
2017-12-04T23:12:52.785Z,4.80
2017-12-04T23:15:21.914Z,4.80
2017-12-04T23:17:51.008Z,4.80
2017-12-04T23:20:20.151Z,4.80
2017-12-04T23:22:50.234Z,4.90
2017-12-04T23:25:19.265Z,4.80
2017-12-04T23:27:49.090Z,5.00
2017-12-04T23:30:18.262Z,4.90
2017-12-04T23:32:48.134Z,5.00
2017-12-04T23:35:17.121Z,4.90
2017-12-04T23:37:46.037Z,5.00
2017-12-04T23:40:15.970Z,5.10
2017-12-04T23:42:44.993Z,5.00
2017-12-04T23:45:14.118Z,5.10
2017-12-04T23:47:43.033Z,5.10
2017-12-04T23:53:46.412Z,5.10
2017-12-04T23:56:15.839Z,5.10
2017-12-04T23:58:44.788Z,5.10
